createdAt,value
2017-07-05T00:01:00.497Z,43.5
2017-07-05T00:02:01.873Z,43.3
2017-07-05T00:03:03.246Z,43.7
2017-07-05T00:04:04.614Z,43.3
2017-07-05T00:05:05.997Z,43.6
2017-07-05T00:06:07.366Z,43.6
2017-07-05T00:07:08.736Z,43.4
2017-07-05T00:08:10.111Z,43.3
2017-07-05T00:09:11.481Z,43.7
2017-07-05T00:10:12.854Z,43.6
2017-07-05T00:11:14.224Z,43.3
2017-07-05T00:12:15.601Z,43.0
2017-07-05T00:13:16.975Z,43.4
2017-07-05T00:14:18.347Z,43.6
2017-07-05T00:15:19.718Z,43.2
2017-07-05T00:16:21.090Z,43.1
2017-07-05T00:17:22.473Z,43.0
2017-07-05T00:18:23.848Z,43.4
2017-07-05T00:19:25.221Z,43.0
2017-07-05T00:20:26.675Z,43.3
2017-07-05T00:21:28.047Z,42.8
2017-07-05T00:22:29.418Z,43.0
2017-07-05T00:23:30.791Z,43.3
2017-07-05T00:24:32.166Z,43.4
2017-07-05T00:25:33.536Z,43.3
2017-07-05T00:26:34.910Z,43.2
2017-07-05T00:27:36.281Z,42.7
2017-07-05T00:28:37.653Z,43.0
2017-07-05T00:29:39.024Z,43.0
2017-07-05T00:30:40.397Z,43.0
2017-07-05T00:31:41.768Z,43.3
2017-07-05T00:32:43.143Z,42.9
2017-07-05T00:33:44.513Z,43.0
2017-07-05T00:34:45.890Z,43.0
2017-07-05T00:35:47.261Z,42.8
2017-07-05T00:36:48.632Z,42.8
2017-07-05T00:37:50.003Z,42.7
2017-07-05T00:38:51.372Z,42.8
2017-07-05T00:39:52.746Z,42.9
2017-07-05T00:40:54.120Z,42.8
2017-07-05T00:41:55.491Z,43.0
2017-07-05T00:42:56.862Z,43.1
2017-07-05T00:43:58.234Z,42.6
2017-07-05T00:44:59.607Z,42.4
2017-07-05T00:46:00.979Z,42.6
2017-07-05T00:47:02.353Z,42.9
2017-07-05T00:48:03.729Z,43.0
2017-07-05T00:49:05.146Z,42.7
2017-07-05T00:50:06.473Z,42.8
2017-07-05T00:51:07.847Z,42.6
2017-07-05T00:52:09.217Z,42.7
2017-07-05T00:53:10.590Z,43.0
2017-07-05T00:54:11.962Z,43.1
2017-07-05T00:55:13.336Z,42.6
2017-07-05T00:56:14.712Z,42.7
2017-07-05T00:57:16.083Z,42.8
2017-07-05T00:58:17.453Z,42.7
2017-07-05T00:59:18.825Z,43.0
2017-07-05T01:00:20.199Z,42.5
2017-07-05T01:01:21.572Z,43.0
2017-07-05T01:02:22.941Z,42.4
2017-07-05T01:03:24.317Z,42.9
2017-07-05T01:04:25.689Z,42.8
2017-07-05T01:05:27.057Z,42.6
2017-07-05T01:06:28.432Z,42.8
2017-07-05T01:07:29.806Z,43.1
2017-07-05T01:08:31.177Z,43.2
2017-07-05T01:09:32.551Z,43.0
2017-07-05T01:10:33.923Z,43.2
2017-07-05T01:11:35.294Z,42.8
2017-07-05T01:12:36.666Z,42.8
2017-07-05T01:13:38.038Z,43.4
2017-07-05T01:14:39.411Z,43.0
2017-07-05T01:15:40.785Z,43.1
2017-07-05T01:16:42.155Z,43.3
2017-07-05T01:17:43.527Z,42.9
2017-07-05T01:18:44.896Z,43.2
2017-07-05T01:19:46.270Z,43.3
2017-07-05T01:20:47.644Z,43.1
2017-07-05T01:21:49.010Z,42.9
2017-07-05T01:22:50.391Z,43.3
2017-07-05T01:23:51.764Z,43.3
2017-07-05T01:24:53.138Z,43.3
2017-07-05T01:25:54.508Z,43.1
2017-07-05T01:26:55.879Z,42.9
2017-07-05T01:27:57.252Z,43.1
2017-07-05T01:28:58.624Z,43.1
2017-07-05T01:29:59.996Z,43.2
2017-07-05T01:31:01.370Z,43.0
2017-07-05T01:32:02.742Z,43.4
2017-07-05T01:33:04.113Z,43.0
2017-07-05T01:34:05.485Z,43.1
2017-07-05T01:35:06.859Z,43.3
2017-07-05T01:36:08.230Z,43.2
2017-07-05T01:37:09.603Z,43.1
2017-07-05T01:38:10.974Z,42.9
2017-07-05T01:39:12.351Z,43.0
2017-07-05T01:40:13.747Z,43.0
2017-07-05T01:41:15.097Z,43.3
2017-07-05T01:42:16.467Z,43.0
2017-07-05T01:43:17.842Z,43.1
2017-07-05T01:44:19.215Z,43.2
2017-07-05T01:45:20.583Z,43.2
2017-07-05T01:46:21.958Z,43.2
2017-07-05T01:47:23.330Z,43.3
2017-07-05T01:48:24.699Z,42.9
2017-07-05T01:49:26.070Z,43.2
2017-07-05T01:50:27.444Z,43.1
2017-07-05T01:51:28.816Z,43.2
2017-07-05T01:52:30.195Z,43.1
2017-07-05T01:53:31.567Z,43.1
2017-07-05T01:54:32.941Z,43.2
2017-07-05T01:55:34.312Z,43.1
2017-07-05T01:56:35.680Z,43.2
2017-07-05T01:57:37.053Z,43.5
2017-07-05T01:58:38.434Z,43.2
2017-07-05T01:59:39.810Z,43.3
2017-07-05T02:00:41.180Z,43.4
2017-07-05T02:01:42.551Z,43.4
2017-07-05T02:02:43.922Z,43.6
2017-07-05T02:03:45.297Z,43.3
2017-07-05T02:04:46.666Z,43.2
2017-07-05T02:05:48.040Z,43.1
2017-07-05T02:06:49.418Z,42.9
2017-07-05T02:07:50.789Z,42.9
2017-07-05T02:08:52.164Z,43.2
2017-07-05T02:09:53.536Z,43.0
2017-07-05T02:10:54.903Z,42.9
2017-07-05T02:11:56.277Z,42.8
2017-07-05T02:12:57.649Z,43.0
2017-07-05T02:13:59.025Z,42.9
2017-07-05T02:15:00.398Z,42.8
2017-07-05T02:16:01.767Z,42.7
2017-07-05T02:17:03.144Z,42.9
2017-07-05T02:18:04.518Z,43.3
2017-07-05T02:19:05.896Z,43.2
2017-07-05T02:20:07.266Z,43.1
2017-07-05T02:21:08.639Z,43.0
2017-07-05T02:22:10.010Z,43.0
2017-07-05T02:23:11.382Z,43.0
2017-07-05T02:24:12.757Z,43.2
2017-07-05T02:25:14.130Z,42.8
2017-07-05T02:26:15.500Z,42.7
2017-07-05T02:27:16.873Z,42.7
2017-07-05T02:28:18.249Z,42.4
2017-07-05T02:29:19.625Z,42.9
2017-07-05T02:30:20.995Z,43.2
2017-07-05T02:31:22.371Z,42.9
2017-07-05T02:32:23.739Z,42.6
2017-07-05T02:33:25.115Z,42.8
2017-07-05T02:34:26.487Z,42.6
2017-07-05T02:35:27.862Z,42.9
2017-07-05T02:36:29.232Z,43.0
2017-07-05T02:37:30.606Z,43.1
2017-07-05T02:38:31.972Z,42.8
2017-07-05T02:39:33.345Z,42.9
2017-07-05T02:40:34.714Z,42.7
2017-07-05T02:41:36.087Z,42.3
2017-07-05T02:42:37.460Z,42.5
2017-07-05T02:43:38.841Z,42.4
2017-07-05T02:44:40.207Z,42.9
2017-07-05T02:45:41.579Z,42.5
2017-07-05T02:46:42.947Z,42.2
2017-07-05T02:47:44.319Z,42.5
2017-07-05T02:48:45.690Z,42.6
2017-07-05T02:49:47.064Z,42.5
2017-07-05T02:50:48.437Z,42.4
2017-07-05T02:51:49.810Z,42.4
2017-07-05T02:52:51.182Z,42.1
2017-07-05T02:53:52.556Z,42.4
2017-07-05T02:54:53.924Z,43.0
2017-07-05T02:55:55.300Z,43.5
2017-07-05T02:56:56.674Z,43.3
2017-07-05T02:57:58.044Z,43.1
2017-07-05T02:58:59.416Z,43.1
2017-07-05T03:00:00.797Z,43.1
2017-07-05T03:01:02.177Z,43.0
2017-07-05T03:02:03.552Z,42.8
2017-07-05T03:03:04.927Z,43.0
2017-07-05T03:04:06.304Z,42.8
2017-07-05T03:05:07.677Z,42.7
2017-07-05T03:06:09.049Z,43.2
2017-07-05T03:07:10.421Z,43.4
2017-07-05T03:08:11.796Z,43.5
2017-07-05T03:09:13.168Z,43.2
2017-07-05T03:10:14.544Z,43.5
2017-07-05T03:11:15.918Z,43.6
2017-07-05T03:12:17.294Z,43.1
2017-07-05T03:13:18.666Z,43.4
2017-07-05T03:14:20.036Z,43.2
2017-07-05T03:15:21.413Z,43.2
2017-07-05T03:16:22.784Z,43.2
2017-07-05T03:17:24.154Z,43.1
2017-07-05T03:18:25.532Z,43.5
2017-07-05T03:19:26.911Z,43.5
2017-07-05T03:20:28.282Z,43.4
2017-07-05T03:21:29.655Z,43.2
2017-07-05T03:22:31.029Z,43.3
2017-07-05T03:23:32.401Z,43.5
2017-07-05T03:24:33.778Z,43.6
2017-07-05T03:25:35.154Z,43.9
2017-07-05T03:26:36.528Z,43.5
2017-07-05T03:27:37.907Z,43.5
2017-07-05T03:28:39.279Z,43.5
2017-07-05T03:29:40.653Z,43.7
2017-07-05T03:30:42.025Z,44.0
2017-07-05T03:31:43.399Z,43.8
2017-07-05T03:32:44.785Z,43.7
2017-07-05T03:33:46.147Z,43.9
2017-07-05T03:34:47.521Z,43.8
2017-07-05T03:35:48.893Z,44.1
2017-07-05T03:36:50.269Z,43.8
2017-07-05T03:37:51.650Z,44.1
2017-07-05T03:38:53.027Z,44.3
2017-07-05T03:39:54.399Z,44.2
2017-07-05T03:40:55.774Z,43.8
2017-07-05T03:41:57.148Z,44.2
2017-07-05T03:42:58.523Z,44.1
2017-07-05T03:43:59.896Z,44.0
2017-07-05T03:45:01.278Z,44.2
2017-07-05T03:46:02.652Z,44.3
2017-07-05T03:47:04.027Z,44.5
2017-07-05T03:48:05.402Z,43.9
2017-07-05T03:49:06.777Z,44.5
2017-07-05T03:50:08.149Z,44.1
2017-07-05T03:51:09.525Z,44.1
2017-07-05T03:52:10.899Z,43.7
2017-07-05T03:53:12.270Z,44.6
2017-07-05T03:54:13.645Z,44.4
2017-07-05T03:55:15.018Z,44.3
2017-07-05T03:56:16.389Z,44.3
2017-07-05T03:57:17.760Z,44.6
2017-07-05T03:58:19.136Z,44.3
2017-07-05T03:59:20.515Z,44.3
2017-07-05T04:00:21.889Z,44.4
2017-07-05T04:01:23.267Z,44.2
2017-07-05T04:02:24.643Z,44.0
2017-07-05T04:03:26.014Z,44.1
2017-07-05T04:04:27.391Z,44.1
2017-07-05T04:05:28.769Z,44.2
2017-07-05T04:06:30.140Z,44.2
2017-07-05T04:07:31.514Z,44.6
2017-07-05T04:08:32.887Z,44.4
2017-07-05T04:09:34.263Z,44.3
2017-07-05T04:10:35.637Z,44.4
2017-07-05T04:11:37.063Z,44.6
2017-07-05T04:12:38.383Z,44.4
2017-07-05T04:13:39.757Z,43.9
2017-07-05T04:14:41.166Z,43.6
2017-07-05T04:15:42.509Z,43.6
2017-07-05T04:16:43.882Z,43.9
2017-07-05T04:17:45.255Z,43.9
2017-07-05T04:18:46.626Z,43.7
2017-07-05T04:19:48.003Z,43.5
2017-07-05T04:20:49.379Z,43.3
2017-07-05T04:21:50.754Z,43.3
2017-07-05T04:22:52.128Z,43.4
2017-07-05T04:23:53.506Z,43.7
2017-07-05T04:24:54.881Z,43.6
2017-07-05T04:25:56.262Z,43.3
2017-07-05T04:26:57.636Z,43.0
2017-07-05T04:27:59.012Z,42.8
2017-07-05T04:29:00.387Z,43.0
2017-07-05T04:30:01.764Z,43.0
2017-07-05T04:31:03.143Z,43.0
2017-07-05T04:32:04.517Z,42.7
2017-07-05T04:33:05.889Z,42.9
2017-07-05T04:34:07.277Z,42.6
2017-07-05T04:35:08.655Z,42.6
2017-07-05T04:36:10.032Z,42.4
2017-07-05T04:37:11.407Z,42.3
2017-07-05T04:38:12.782Z,42.3
2017-07-05T04:39:14.155Z,42.4
2017-07-05T04:40:15.531Z,42.3
2017-07-05T04:41:16.912Z,41.7
2017-07-05T04:42:18.285Z,42.1
2017-07-05T04:43:19.665Z,42.1
2017-07-05T04:44:21.039Z,41.6
2017-07-05T04:45:22.415Z,41.9
2017-07-05T04:46:23.790Z,41.5
2017-07-05T04:47:25.165Z,41.4
2017-07-05T04:48:26.541Z,41.5
2017-07-05T04:49:27.908Z,41.5
2017-07-05T04:50:29.294Z,41.4
2017-07-05T04:51:30.692Z,41.5
2017-07-05T04:52:32.067Z,41.3
2017-07-05T04:53:33.444Z,41.4
2017-07-05T04:54:34.819Z,41.3
2017-07-05T04:55:36.197Z,41.0
2017-07-05T04:56:37.572Z,41.0
2017-07-05T04:57:38.950Z,40.9
2017-07-05T04:58:40.323Z,40.5
2017-07-05T04:59:41.699Z,40.6
2017-07-05T05:00:43.072Z,41.7
2017-07-05T05:01:44.446Z,42.9
2017-07-05T05:02:45.822Z,44.5
2017-07-05T05:03:47.194Z,44.9
2017-07-05T05:04:48.576Z,44.3
2017-07-05T05:05:49.951Z,44.8
2017-07-05T05:06:51.333Z,43.8
2017-07-05T05:07:52.707Z,44.7
2017-07-05T05:08:54.080Z,43.6
2017-07-05T05:09:55.458Z,43.2
2017-07-05T05:10:56.834Z,43.4
2017-07-05T05:11:58.209Z,42.4
2017-07-05T05:12:59.589Z,41.8
2017-07-05T05:14:00.968Z,41.5
2017-07-05T05:15:02.340Z,42.3
2017-07-05T05:16:03.714Z,41.7
2017-07-05T05:17:05.089Z,41.4
2017-07-05T05:18:06.465Z,41.2
2017-07-05T05:19:07.841Z,41.2
2017-07-05T05:20:09.216Z,40.5
2017-07-05T05:21:10.591Z,40.6
2017-07-05T05:22:11.967Z,39.9
2017-07-05T05:23:13.341Z,39.7
2017-07-05T05:24:14.716Z,39.8
2017-07-05T05:25:16.093Z,39.7
2017-07-05T05:26:17.471Z,39.6
2017-07-05T05:27:18.876Z,39.8
2017-07-05T05:28:20.251Z,39.2
2017-07-05T05:29:21.663Z,38.6
2017-07-05T05:30:23.035Z,39.0
2017-07-05T05:31:24.415Z,39.4
2017-07-05T05:32:25.791Z,38.5
2017-07-05T05:33:27.168Z,39.1
2017-07-05T05:34:28.544Z,39.0
2017-07-05T05:35:29.922Z,37.7
2017-07-05T05:36:31.296Z,37.9
2017-07-05T05:37:32.670Z,38.4
2017-07-05T05:38:34.046Z,38.0
2017-07-05T05:39:35.420Z,38.0
2017-07-05T05:40:36.796Z,38.6
2017-07-05T05:41:38.172Z,38.8
2017-07-05T05:42:39.550Z,37.5
2017-07-05T05:43:40.924Z,37.6
2017-07-05T05:44:42.301Z,37.7
2017-07-05T05:45:43.676Z,38.2
2017-07-05T05:46:45.053Z,39.6
2017-07-05T05:47:46.432Z,39.4
2017-07-05T05:48:47.807Z,38.5
2017-07-05T05:49:49.184Z,38.7
2017-07-05T05:50:50.560Z,38.2
2017-07-05T05:51:51.933Z,37.6
2017-07-05T05:52:53.311Z,37.9
2017-07-05T05:53:54.727Z,37.8
2017-07-05T05:54:56.071Z,37.3
2017-07-05T05:55:57.450Z,37.7
2017-07-05T05:56:58.827Z,37.8
2017-07-05T05:58:00.201Z,37.6
2017-07-05T05:59:01.577Z,37.1
2017-07-05T06:00:02.955Z,37.1
2017-07-05T06:01:04.331Z,37.3
2017-07-05T06:02:05.707Z,37.5
2017-07-05T06:03:07.086Z,37.2
2017-07-05T06:04:08.464Z,37.2
2017-07-05T06:05:09.838Z,37.6
2017-07-05T06:06:11.214Z,37.3
2017-07-05T06:07:12.610Z,37.4
2017-07-05T06:08:13.985Z,38.0
2017-07-05T06:09:15.363Z,37.9
2017-07-05T06:10:16.740Z,37.3
2017-07-05T06:11:18.118Z,38.2
2017-07-05T06:12:19.494Z,38.2
2017-07-05T06:13:20.869Z,37.7
2017-07-05T06:14:22.244Z,37.9
2017-07-05T06:15:23.623Z,37.3
2017-07-05T06:16:24.999Z,37.3
2017-07-05T06:17:26.378Z,37.5
2017-07-05T06:18:27.754Z,37.2
2017-07-05T06:19:29.128Z,36.0
2017-07-05T06:20:30.504Z,37.3
2017-07-05T06:21:31.879Z,36.6
2017-07-05T06:22:33.255Z,37.2
2017-07-05T06:23:34.634Z,37.2
2017-07-05T06:24:36.009Z,37.2
2017-07-05T06:25:37.398Z,37.1
2017-07-05T06:26:38.772Z,37.4
2017-07-05T06:27:40.147Z,37.4
2017-07-05T06:28:41.524Z,37.4
2017-07-05T06:29:42.907Z,38.3
2017-07-05T06:30:44.286Z,38.4
2017-07-05T06:31:45.663Z,38.6
2017-07-05T06:32:47.040Z,39.8
2017-07-05T06:33:48.417Z,39.6
2017-07-05T06:34:49.794Z,40.6
2017-07-05T06:35:51.170Z,40.7
2017-07-05T06:36:52.548Z,40.8
2017-07-05T06:37:53.973Z,41.5
2017-07-05T06:38:55.298Z,40.9
2017-07-05T06:39:56.681Z,41.0
2017-07-05T06:40:58.054Z,41.4
2017-07-05T06:41:59.435Z,41.1
2017-07-05T06:43:00.817Z,41.6
2017-07-05T06:44:02.197Z,41.9
2017-07-05T06:45:03.569Z,41.4
2017-07-05T06:46:04.947Z,41.2
2017-07-05T06:47:06.325Z,41.3
2017-07-05T06:48:07.702Z,41.6
2017-07-05T06:49:09.078Z,41.6
2017-07-05T06:50:10.454Z,42.3
2017-07-05T06:51:11.840Z,41.9
2017-07-05T06:52:13.224Z,41.5
2017-07-05T06:53:14.604Z,41.4
2017-07-05T06:54:15.986Z,41.9
2017-07-05T06:55:17.372Z,41.8
2017-07-05T06:56:18.742Z,41.9
2017-07-05T06:57:20.115Z,41.9
2017-07-05T06:58:21.493Z,42.0
2017-07-05T06:59:22.869Z,42.4
2017-07-05T07:00:24.245Z,41.5
2017-07-05T07:01:25.624Z,42.4
2017-07-05T07:02:27.026Z,41.4
2017-07-05T07:03:28.371Z,41.7
2017-07-05T07:04:29.750Z,42.5
2017-07-05T07:05:31.126Z,42.3
2017-07-05T07:06:32.502Z,41.8
2017-07-05T07:07:33.878Z,42.3
2017-07-05T07:08:35.262Z,42.3
2017-07-05T07:09:36.634Z,41.6
2017-07-05T07:10:38.010Z,41.9
2017-07-05T07:11:39.388Z,42.0
2017-07-05T07:12:40.763Z,41.6
2017-07-05T07:13:42.140Z,42.0
2017-07-05T07:14:43.516Z,41.6
2017-07-05T07:15:44.951Z,42.1
2017-07-05T07:16:46.268Z,41.7
2017-07-05T07:17:47.642Z,42.2
2017-07-05T07:18:49.023Z,42.1
2017-07-05T07:19:50.398Z,42.1
2017-07-05T07:20:51.778Z,42.1
2017-07-05T07:21:53.157Z,42.4
2017-07-05T07:22:54.535Z,42.3
2017-07-05T07:23:55.910Z,42.5
2017-07-05T07:24:57.283Z,41.8
2017-07-05T07:25:58.662Z,42.2
2017-07-05T07:27:00.036Z,42.3
2017-07-05T07:28:01.441Z,42.2
2017-07-05T07:29:02.820Z,42.3
2017-07-05T07:30:04.200Z,42.2
2017-07-05T07:31:05.574Z,41.9
2017-07-05T07:32:06.947Z,42.4
2017-07-05T07:33:08.326Z,41.6
2017-07-05T07:34:09.702Z,41.8
2017-07-05T07:35:11.080Z,41.6
2017-07-05T07:36:12.459Z,42.1
2017-07-05T07:37:13.836Z,41.9
2017-07-05T07:38:15.212Z,41.7
2017-07-05T07:39:16.590Z,41.9
2017-07-05T07:40:17.966Z,41.8
2017-07-05T07:41:19.343Z,42.2
2017-07-05T07:42:20.717Z,41.7
2017-07-05T07:43:22.095Z,42.3
2017-07-05T07:44:23.472Z,42.2
2017-07-05T07:45:24.853Z,42.8
2017-07-05T07:46:26.219Z,42.8
2017-07-05T07:47:28.220Z,42.1
2017-07-05T07:48:29.597Z,42.7
2017-07-05T07:49:30.974Z,42.8
2017-07-05T07:50:32.361Z,42.7
2017-07-05T07:51:33.740Z,42.7
2017-07-05T07:52:35.115Z,43.0
2017-07-05T07:53:36.487Z,43.4
2017-07-05T07:54:37.867Z,42.9
2017-07-05T07:55:39.246Z,42.7
2017-07-05T07:56:40.624Z,42.8
2017-07-05T07:57:42.003Z,42.7
2017-07-05T07:58:43.377Z,42.4
2017-07-05T07:59:44.752Z,42.3
2017-07-05T08:00:46.132Z,42.1
2017-07-05T08:01:47.511Z,42.5
2017-07-05T08:02:48.887Z,42.8
2017-07-05T08:03:50.264Z,42.5
2017-07-05T08:04:51.644Z,42.9
2017-07-05T08:05:53.021Z,43.0
2017-07-05T08:06:54.394Z,43.1
2017-07-05T08:07:55.769Z,43.1
2017-07-05T08:08:57.149Z,42.5
2017-07-05T08:09:58.523Z,42.7
2017-07-05T08:10:59.897Z,42.6
2017-07-05T08:12:01.275Z,42.6
2017-07-05T08:13:02.651Z,42.7
2017-07-05T08:14:04.035Z,43.4
2017-07-05T08:15:05.409Z,42.5
2017-07-05T08:16:06.784Z,42.5
2017-07-05T08:17:08.161Z,43.6
2017-07-05T08:18:09.536Z,43.3
2017-07-05T08:19:10.913Z,43.8
2017-07-05T08:20:12.290Z,43.7
2017-07-05T08:21:13.669Z,43.7
2017-07-05T08:22:15.059Z,43.5
2017-07-05T08:23:16.436Z,43.3
2017-07-05T08:24:17.811Z,43.6
2017-07-05T08:25:19.188Z,43.2
2017-07-05T08:26:20.564Z,43.2
2017-07-05T08:27:21.947Z,43.4
2017-07-05T08:28:23.319Z,43.2
2017-07-05T08:29:24.697Z,43.5
2017-07-05T08:30:26.074Z,43.2
2017-07-05T08:31:27.449Z,43.1
2017-07-05T08:32:28.827Z,43.0
2017-07-05T08:33:30.203Z,42.8
2017-07-05T08:34:31.582Z,42.8
2017-07-05T08:35:32.960Z,43.1
2017-07-05T08:36:34.329Z,43.1
2017-07-05T08:37:35.722Z,43.5
2017-07-05T08:38:37.098Z,43.2
2017-07-05T08:39:38.474Z,43.3
2017-07-05T08:40:39.852Z,44.0
2017-07-05T08:41:43.991Z,43.4
2017-07-05T08:42:45.368Z,43.4
2017-07-05T08:43:46.745Z,43.3
2017-07-05T08:44:48.121Z,43.4
2017-07-05T08:45:49.497Z,43.5
2017-07-05T08:46:50.872Z,43.5
2017-07-05T08:47:52.249Z,43.6
2017-07-05T08:48:53.628Z,43.7
2017-07-05T08:49:55.006Z,43.5
2017-07-05T08:50:56.379Z,43.3
2017-07-05T08:51:57.754Z,43.3
2017-07-05T08:52:59.132Z,43.4
2017-07-05T08:54:00.508Z,43.0
2017-07-05T08:55:01.890Z,43.8
2017-07-05T08:56:03.269Z,44.1
2017-07-05T08:57:04.650Z,43.7
2017-07-05T08:58:06.019Z,43.5
2017-07-05T08:59:07.396Z,44.0
2017-07-05T09:00:08.773Z,44.2
2017-07-05T09:01:10.149Z,44.1
2017-07-05T09:02:11.529Z,43.9
2017-07-05T09:03:12.903Z,43.9
2017-07-05T09:04:14.277Z,44.0
2017-07-05T09:05:15.664Z,44.3
2017-07-05T09:06:17.042Z,43.7
2017-07-05T09:07:18.420Z,43.9
2017-07-05T09:08:19.795Z,43.7
2017-07-05T09:09:21.218Z,43.8
2017-07-05T09:10:22.552Z,43.7
2017-07-05T09:11:23.930Z,43.7
2017-07-05T09:12:25.307Z,43.4
2017-07-05T09:13:26.684Z,43.7
2017-07-05T09:14:28.062Z,43.7
2017-07-05T09:15:29.439Z,43.7
2017-07-05T09:16:30.819Z,43.3
2017-07-05T09:17:32.193Z,43.5
2017-07-05T09:18:33.571Z,43.8
2017-07-05T09:19:34.946Z,44.0
2017-07-05T09:20:36.321Z,44.2
2017-07-05T09:21:37.700Z,44.3
2017-07-05T09:22:39.074Z,44.2
2017-07-05T09:23:40.455Z,43.9
2017-07-05T09:24:41.835Z,43.7
2017-07-05T09:25:43.206Z,43.8
2017-07-05T09:26:44.585Z,43.5
2017-07-05T09:27:45.961Z,43.9
2017-07-05T09:28:47.338Z,43.6
2017-07-05T09:29:48.719Z,44.0
2017-07-05T09:30:50.103Z,44.4
2017-07-05T09:31:51.479Z,43.8
2017-07-05T09:32:52.856Z,43.5
2017-07-05T09:33:54.235Z,43.4
2017-07-05T09:34:55.610Z,43.3
2017-07-05T09:35:56.989Z,43.4
2017-07-05T09:36:58.364Z,43.3
2017-07-05T09:37:59.743Z,43.5
2017-07-05T09:39:01.119Z,43.3
2017-07-05T09:40:02.495Z,43.5
2017-07-05T09:41:03.871Z,43.5
2017-07-05T09:42:05.250Z,43.0
2017-07-05T09:43:06.626Z,42.8
2017-07-05T09:44:08.005Z,43.3
2017-07-05T09:45:09.383Z,43.4
2017-07-05T09:46:10.759Z,44.0
2017-07-05T09:47:12.137Z,43.5
2017-07-05T09:48:13.512Z,43.7
2017-07-05T09:49:14.886Z,43.6
2017-07-05T09:50:16.265Z,43.1
2017-07-05T09:51:17.642Z,43.4
2017-07-05T09:52:19.018Z,43.2
2017-07-05T09:53:20.398Z,43.3
2017-07-05T09:54:21.774Z,43.0
2017-07-05T09:55:23.151Z,43.0
2017-07-05T09:56:24.523Z,42.8
2017-07-05T09:57:25.898Z,42.8
2017-07-05T09:58:27.276Z,42.8
2017-07-05T09:59:28.650Z,42.6
2017-07-05T10:00:30.028Z,42.7
2017-07-05T10:01:31.403Z,43.1
2017-07-05T10:02:32.778Z,42.8
2017-07-05T10:03:34.156Z,42.6
2017-07-05T10:04:35.532Z,42.9
2017-07-05T10:05:38.256Z,43.1
2017-07-05T10:06:39.633Z,43.1
2017-07-05T10:07:41.010Z,43.2
2017-07-05T10:08:42.386Z,43.1
2017-07-05T10:09:43.761Z,43.0
2017-07-05T10:10:45.162Z,43.0
2017-07-05T10:11:46.541Z,42.7
2017-07-05T10:12:47.919Z,42.4
2017-07-05T10:13:49.296Z,42.1
2017-07-05T10:14:50.676Z,42.1
2017-07-05T10:15:52.054Z,42.2
2017-07-05T10:16:53.429Z,42.2
2017-07-05T10:17:54.807Z,42.8
2017-07-05T10:18:56.182Z,42.3
2017-07-05T10:19:57.558Z,42.2
2017-07-05T10:20:58.941Z,42.2
2017-07-05T10:22:00.311Z,42.7
2017-07-05T10:23:01.691Z,42.9
2017-07-05T10:24:03.066Z,42.7
2017-07-05T10:25:04.440Z,42.8
2017-07-05T10:26:05.816Z,42.4
2017-07-05T10:27:07.192Z,42.4
2017-07-05T10:28:08.571Z,42.3
2017-07-05T10:29:09.954Z,42.5
2017-07-05T10:30:11.332Z,42.4
2017-07-05T10:31:12.703Z,42.6
2017-07-05T10:32:14.082Z,42.7
2017-07-05T10:33:15.456Z,42.7
2017-07-05T10:34:16.834Z,42.4
2017-07-05T10:35:18.210Z,42.6
2017-07-05T10:36:19.587Z,43.0
2017-07-05T10:37:20.963Z,43.1
2017-07-05T10:38:22.338Z,43.0
2017-07-05T10:39:23.719Z,42.8
2017-07-05T10:40:25.095Z,42.6
2017-07-05T10:41:26.474Z,43.0
2017-07-05T10:42:27.852Z,42.6
2017-07-05T10:43:29.230Z,42.8
2017-07-05T10:44:30.606Z,42.4
2017-07-05T10:45:31.982Z,42.9
2017-07-05T10:46:33.359Z,42.7
2017-07-05T10:47:34.735Z,42.7
2017-07-05T10:48:36.111Z,43.0
2017-07-05T10:49:37.485Z,43.0
2017-07-05T10:50:38.863Z,43.0
2017-07-05T10:51:40.239Z,42.8
2017-07-05T10:52:41.618Z,42.8
2017-07-05T10:53:42.999Z,42.9
2017-07-05T10:54:44.372Z,42.9
2017-07-05T10:55:45.751Z,42.9
2017-07-05T10:56:47.132Z,43.8
2017-07-05T10:57:48.508Z,42.6
2017-07-05T10:58:49.885Z,42.4
2017-07-05T10:59:51.260Z,42.4
2017-07-05T11:00:52.635Z,42.9
2017-07-05T11:01:54.017Z,42.4
2017-07-05T11:02:55.395Z,42.4
2017-07-05T11:03:56.778Z,42.7
2017-07-05T11:04:58.155Z,42.3
2017-07-05T11:05:59.532Z,42.4
2017-07-05T11:07:00.904Z,42.4
2017-07-05T11:08:02.282Z,42.4
2017-07-05T11:09:03.663Z,42.2
2017-07-05T11:10:05.039Z,41.9
2017-07-05T11:11:06.422Z,42.2
2017-07-05T11:12:07.798Z,41.9
2017-07-05T11:13:09.174Z,42.2
2017-07-05T11:14:10.550Z,41.9
2017-07-05T11:15:11.926Z,41.9
2017-07-05T11:16:13.302Z,41.9
2017-07-05T11:17:14.682Z,42.1
2017-07-05T11:18:16.057Z,42.1
2017-07-05T11:19:17.441Z,41.9
2017-07-05T11:20:18.812Z,42.1
2017-07-05T11:21:20.186Z,41.9
2017-07-05T11:22:21.563Z,42.1
2017-07-05T11:23:22.949Z,42.1
2017-07-05T11:24:24.328Z,42.1
2017-07-05T11:25:25.704Z,42.2
2017-07-05T11:26:27.082Z,42.1
2017-07-05T11:27:28.460Z,42.2
2017-07-05T11:28:29.839Z,42.1
2017-07-05T11:29:31.214Z,41.5
2017-07-05T11:30:32.591Z,41.9
2017-07-05T11:31:33.968Z,41.7
2017-07-05T11:32:35.345Z,41.5
2017-07-05T11:33:36.722Z,42.4
2017-07-05T11:34:38.094Z,42.2
2017-07-05T11:35:39.476Z,42.3
2017-07-05T11:36:40.857Z,42.2
2017-07-05T11:37:42.231Z,42.1
2017-07-05T11:38:43.608Z,42.2
2017-07-05T11:39:44.989Z,41.9
2017-07-05T11:40:46.365Z,42.1
2017-07-05T11:41:47.743Z,41.9
2017-07-05T11:42:49.118Z,41.9
2017-07-05T11:43:50.494Z,42.0
2017-07-05T11:44:51.870Z,41.9
2017-07-05T11:45:53.247Z,42.6
2017-07-05T11:46:54.624Z,42.0
2017-07-05T11:47:56.001Z,42.1
2017-07-05T11:48:57.378Z,41.7
2017-07-05T11:49:58.757Z,41.8
2017-07-05T11:51:00.130Z,41.9
2017-07-05T11:52:01.509Z,41.7
2017-07-05T11:53:02.891Z,41.7
2017-07-05T11:54:04.269Z,41.2
2017-07-05T11:55:05.648Z,41.0
2017-07-05T11:56:07.023Z,41.2
2017-07-05T11:57:08.399Z,41.4
2017-07-05T11:58:09.775Z,41.1
2017-07-05T11:59:11.151Z,41.1
2017-07-05T12:00:12.528Z,41.0
2017-07-05T12:01:13.905Z,41.6
2017-07-05T12:02:15.290Z,41.2
2017-07-05T12:03:16.665Z,41.2
2017-07-05T12:04:18.041Z,41.1
2017-07-05T12:05:19.418Z,41.0
2017-07-05T12:06:20.793Z,41.1
2017-07-05T12:07:22.172Z,41.1
2017-07-05T12:08:23.554Z,41.3
2017-07-05T12:09:24.940Z,41.1
2017-07-05T12:10:26.323Z,41.1
2017-07-05T12:11:27.710Z,41.2
2017-07-05T12:12:29.084Z,41.4
2017-07-05T12:13:30.462Z,41.2
2017-07-05T12:14:31.842Z,41.1
2017-07-05T12:15:33.216Z,41.2
2017-07-05T12:16:34.597Z,40.6
2017-07-05T12:17:35.972Z,41.1
2017-07-05T12:18:37.350Z,41.2
2017-07-05T12:19:38.730Z,41.5
2017-07-05T12:20:40.100Z,41.6
2017-07-05T12:21:41.479Z,40.6
2017-07-05T12:22:42.861Z,40.7
2017-07-05T12:23:44.235Z,40.7
2017-07-05T12:24:45.610Z,40.8
2017-07-05T12:25:46.988Z,40.6
2017-07-05T12:26:48.367Z,40.6
2017-07-05T12:27:49.742Z,40.5
2017-07-05T12:28:51.118Z,40.7
2017-07-05T12:29:52.496Z,40.4
2017-07-05T12:30:53.872Z,39.4
2017-07-05T12:31:55.248Z,39.6
2017-07-05T12:32:56.625Z,39.6
2017-07-05T12:33:57.999Z,40.2
2017-07-05T12:34:59.377Z,40.0
2017-07-05T12:36:00.753Z,40.4
2017-07-05T12:37:02.129Z,40.1
2017-07-05T12:38:03.502Z,40.5
2017-07-05T12:39:04.887Z,40.2
2017-07-05T12:40:06.263Z,40.5
2017-07-05T12:41:07.643Z,40.7
2017-07-05T12:42:09.016Z,40.5
2017-07-05T12:43:10.395Z,40.5
2017-07-05T12:44:11.775Z,40.5
2017-07-05T12:45:13.151Z,40.5
2017-07-05T12:46:14.526Z,40.5
2017-07-05T12:47:15.902Z,40.6
2017-07-05T12:48:17.276Z,40.6
2017-07-05T12:49:18.652Z,40.6
2017-07-05T12:50:20.028Z,40.7
2017-07-05T12:51:21.409Z,40.3
2017-07-05T12:52:22.786Z,40.3
2017-07-05T12:53:24.162Z,40.4
2017-07-05T12:54:25.540Z,40.7
2017-07-05T12:55:26.914Z,40.4
2017-07-05T12:56:28.290Z,40.7
2017-07-05T12:57:29.668Z,40.6
2017-07-05T12:58:31.043Z,40.7
2017-07-05T12:59:32.422Z,40.6
2017-07-05T13:00:33.801Z,40.7
2017-07-05T13:01:35.179Z,40.9
2017-07-05T13:02:36.552Z,40.8
2017-07-05T13:03:37.931Z,41.0
2017-07-05T13:04:39.310Z,40.6
2017-07-05T13:05:40.689Z,40.7
2017-07-05T13:06:42.068Z,41.5
2017-07-05T13:07:43.444Z,41.1
2017-07-05T13:08:44.823Z,41.3
2017-07-05T13:09:46.194Z,41.4
2017-07-05T13:10:47.576Z,40.6
2017-07-05T13:11:48.952Z,41.1
2017-07-05T13:12:50.327Z,40.4
2017-07-05T13:13:51.710Z,39.9
2017-07-05T13:14:53.085Z,40.5
2017-07-05T13:15:54.465Z,39.8
2017-07-05T13:16:55.833Z,40.3
2017-07-05T13:17:57.209Z,40.2
2017-07-05T13:18:58.587Z,39.7
2017-07-05T13:19:59.963Z,40.0
2017-07-05T13:21:01.342Z,39.8
2017-07-05T13:22:02.720Z,39.5
2017-07-05T13:23:04.091Z,39.7
2017-07-05T13:24:05.472Z,39.8
2017-07-05T13:25:06.849Z,39.4
2017-07-05T13:26:08.223Z,39.9
2017-07-05T13:27:09.602Z,40.2
2017-07-05T13:28:10.978Z,40.4
2017-07-05T13:29:12.362Z,40.5
2017-07-05T13:30:13.733Z,40.3
2017-07-05T13:31:15.109Z,40.3
2017-07-05T13:32:16.485Z,40.4
2017-07-05T13:33:17.865Z,40.4
2017-07-05T13:34:19.238Z,39.6
2017-07-05T13:35:20.617Z,39.5
2017-07-05T13:36:22.071Z,39.4
2017-07-05T13:37:23.447Z,40.1